createdAt,value
2023-05-19T00:09:09.536Z,69.55
2023-05-19T00:19:35.590Z,69.98
2023-05-19T00:30:00.929Z,70.55
2023-05-19T00:40:30.269Z,71.09
2023-05-19T00:51:02.631Z,71.03
2023-05-19T01:01:49.174Z,71.46
2023-05-19T01:12:14.807Z,71.56
2023-05-19T01:23:19.894Z,71.83
2023-05-19T01:33:47.836Z,71.63
2023-05-19T01:44:14.959Z,72.03
2023-05-19T01:54:40.844Z,72.19
2023-05-19T02:05:19.843Z,71.60
2023-05-19T02:15:48.315Z,71.78
2023-05-19T02:26:12.559Z,72.04
2023-05-19T02:36:41.180Z,72.19
2023-05-19T02:47:07.655Z,71.61
2023-05-19T02:57:34.250Z,71.50
2023-05-19T03:08:00.109Z,71.69
2023-05-19T03:18:26.253Z,71.69
2023-05-19T03:28:52.112Z,72.09
2023-05-19T03:39:17.734Z,72.52
2023-05-19T03:49:43.373Z,72.78
2023-05-19T04:00:12.438Z,72.33
2023-05-19T04:10:38.496Z,72.27
2023-05-19T04:21:04.642Z,72.29
2023-05-19T04:31:30.659Z,72.56
2023-05-19T04:41:57.058Z,72.51
2023-05-19T04:52:22.961Z,72.65
2023-05-19T05:02:50.148Z,72.59
2023-05-19T05:13:17.337Z,72.70
2023-05-19T05:23:44.092Z,73.05
2023-05-19T05:34:09.864Z,72.84
2023-05-19T05:44:36.275Z,72.53
2023-05-19T06:05:47.971Z,72.54
2023-05-19T06:16:14.014Z,72.77
2023-05-19T06:26:39.703Z,72.48
2023-05-19T06:37:05.981Z,72.20
2023-05-19T06:47:31.964Z,72.22
2023-05-19T06:57:58.092Z,71.92
2023-05-19T07:08:24.273Z,72.04
2023-05-19T07:18:50.146Z,72.36
2023-05-19T07:29:16.329Z,72.29
2023-05-19T07:39:42.211Z,72.02
2023-05-19T07:50:09.442Z,71.53
2023-05-19T08:00:35.856Z,71.30
2023-05-19T08:11:05.396Z,71.29
2023-05-19T08:21:31.421Z,71.22
2023-05-19T08:31:58.649Z,71.15
2023-05-19T08:42:24.283Z,71.19
2023-05-19T08:52:58.523Z,70.84
2023-05-19T09:03:26.689Z,71.12
2023-05-19T09:13:53.072Z,71.21
2023-05-19T09:24:19.404Z,71.12
2023-05-19T09:34:46.032Z,70.77
2023-05-19T09:45:13.077Z,70.53
2023-05-19T09:55:38.778Z,70.39
2023-05-19T10:06:09.279Z,69.92
2023-05-19T10:16:37.209Z,69.93
2023-05-19T10:27:07.887Z,69.70
2023-05-19T10:37:43.030Z,69.75
2023-05-19T10:48:15.254Z,69.67
2023-05-19T10:58:52.346Z,69.74
2023-05-19T11:09:22.662Z,69.65
2023-05-19T11:19:59.479Z,69.43
2023-05-19T11:41:10.624Z,69.35
2023-05-19T11:51:38.599Z,69.12
2023-05-19T12:02:26.286Z,68.89
2023-05-19T12:12:51.431Z,68.82
2023-05-19T12:23:17.822Z,68.51
2023-05-19T12:33:43.595Z,68.00
2023-05-19T12:44:18.376Z,68.25
2023-05-19T12:54:44.187Z,68.18
2023-05-19T13:05:10.610Z,68.26
2023-05-19T13:15:37.987Z,68.13
2023-05-19T13:26:06.732Z,68.20
2023-05-19T13:36:33.421Z,67.88
2023-05-19T13:47:00.050Z,67.82
2023-05-19T13:57:26.660Z,67.67
2023-05-19T14:07:52.661Z,67.73
2023-05-19T14:18:18.723Z,67.66
2023-05-19T14:28:44.805Z,67.51
2023-05-19T14:39:10.561Z,67.27
2023-05-19T14:49:36.861Z,67.43
2023-05-19T15:00:02.970Z,67.42
2023-05-19T15:10:28.894Z,67.19
2023-05-19T15:20:54.677Z,67.16
2023-05-19T15:31:21.856Z,67.64
2023-05-19T15:41:47.842Z,67.94
2023-05-19T15:52:13.432Z,67.82
2023-05-19T16:02:39.487Z,67.85
2023-05-19T16:13:05.542Z,67.72
2023-05-19T16:23:31.622Z,67.82
2023-05-19T16:33:57.464Z,67.85
2023-05-19T16:44:24.776Z,68.38
2023-05-19T16:54:50.627Z,68.39
2023-05-19T17:05:16.948Z,68.37
2023-05-19T17:15:43.471Z,68.33
2023-05-19T17:26:09.720Z,68.20
2023-05-19T17:36:35.898Z,68.50
2023-05-19T17:47:02.555Z,68.33
2023-05-19T17:57:33.515Z,68.42
2023-05-19T18:07:59.491Z,68.45
2023-05-19T18:18:25.054Z,68.36
2023-05-19T18:28:51.297Z,68.48
2023-05-19T18:39:16.956Z,68.52
2023-05-19T18:49:43.812Z,68.44
2023-05-19T19:00:11.964Z,68.43
2023-05-19T19:10:40.429Z,68.55
2023-05-19T19:21:07.583Z,68.55
2023-05-19T19:31:33.806Z,68.62
2023-05-19T19:42:00.079Z,68.91
2023-05-19T19:52:26.790Z,69.34
2023-05-19T20:03:03.727Z,69.46
2023-05-19T20:13:32.921Z,69.74
2023-05-19T20:23:58.997Z,69.96
2023-05-19T20:34:25.188Z,70.31
2023-05-19T20:44:51.473Z,70.70
2023-05-19T20:55:17.439Z,70.84
2023-05-19T21:05:43.078Z,70.75
2023-05-19T21:16:09.482Z,70.88
2023-05-19T21:26:35.523Z,70.68
2023-05-19T21:37:01.106Z,71.31
2023-05-19T21:47:27.032Z,71.21
2023-05-19T21:57:52.947Z,71.07
2023-05-19T22:08:19.872Z,71.01
2023-05-19T22:18:45.869Z,70.82
2023-05-19T22:29:15.266Z,70.94
2023-05-19T22:39:41.447Z,71.35
2023-05-19T22:50:10.634Z,71.45
2023-05-19T23:00:36.560Z,71.43
2023-05-19T23:11:03.788Z,71.33
2023-05-19T23:21:31.486Z,71.64
2023-05-19T23:31:57.219Z,71.70
2023-05-19T23:42:23.012Z,71.59
2023-05-19T23:52:49.424Z,71.73
